Time;durP1;ratioP1;P1;durP2;ratioP2;P2;SDS_P1;SDS_P2;PMS_P1;PMS_P2;Temp;Humidity;BMP_temperature;BMP_pressure;BME280_temperature;BME280_humidity;BME280_pressure;Samples;Min_cycle;Max_cycle;Signal;HPM_P1;HPM_P2
2021/10/02 00:46:34;;;;;;;45.37;24.37;;;;;;;15.67;100.00;101107.16;5075380;28;20040;-57
2021/10/02 00:49:00;;;;;;;52.60;28.25;;;;;;;15.61;100.00;101114.25;5075527;28;20720;-55
2021/10/02 00:51:26;;;;;;;46.50;25.48;;;;;;;15.63;100.00;101106.75;5057613;28;20170;-57
2021/10/02 00:53:52;;;;;;;56.72;30.63;;;;;;;15.56;100.00;101114.09;5075228;28;20112;-57
2021/10/02 00:56:18;;;;;;;58.25;26.58;;;;;;;15.76;100.00;101105.00;5075495;28;20453;-56
2021/10/02 00:58:48;;;;;;;49.73;28.00;;;;;;;15.70;100.00;101119.38;5040986;28;20546;-56
2021/10/02 01:01:17;;;;;;;50.80;28.13;;;;;;;15.61;100.00;101105.34;5075019;28;20855;-57
2021/10/02 01:03:56;;;;;;;51.80;28.33;;;;;;;15.62;100.00;101107.00;5075559;28;20273;-57
2021/10/02 01:06:48;;;;;;;51.47;27.33;;;;;;;15.76;100.00;101099.59;5075190;28;20376;-57
2021/10/02 01:09:30;;;;;;;45.83;26.93;;;;;;;15.78;100.00;101092.91;5074677;28;20787;-55
2021/10/02 01:12:03;;;;;;;47.87;26.87;;;;;;;15.82;100.00;101089.78;5074709;28;20303;-57
2021/10/02 01:14:46;;;;;;;49.03;25.07;;;;;;;15.74;100.00;101085.53;5075082;28;20729;-55
2021/10/02 01:17:38;;;;;;;42.93;23.00;;;;;;;15.78;100.00;101084.81;5075210;28;20265;-56
2021/10/02 01:20:08;;;;;;;36.67;21.37;;;;;;;15.82;100.00;101096.00;5057042;28;20353;-56
2021/10/02 01:22:48;;;;;;;38.43;22.80;;;;;;;15.81;100.00;101097.03;5075160;28;20273;-56
2021/10/02 01:25:52;;;;;;;49.43;26.60;;;;;;;15.92;100.00;101092.81;5074996;28;20305;-56
2021/10/02 01:28:19;;;;;;;56.03;29.47;;;;;;;15.85;100.00;101084.75;5001502;28;20810;-56
2021/10/02 01:31:05;;;;;;;62.90;29.73;;;;;;;15.83;100.00;101089.56;5074811;28;20264;-57
2021/10/02 01:33:59;;;;;;;59.13;31.97;;;;;;;15.99;100.00;101092.75;5057041;28;20624;-55
2021/10/02 01:36:53;;;;;;;45.03;25.50;;;;;;;15.83;100.00;101100.34;5057203;28;20610;-57
2021/10/02 01:47:49;;;;;;;54.73;23.77;;;;;;;15.98;100.00;101101.88;5074407;28;20265;-57
2021/10/02 01:50:16;;;;;;;47.90;22.47;;;;;;;15.93;100.00;101094.47;5074832;28;20609;-56
2021/10/02 01:52:44;;;;;;;40.37;23.03;;;;;;;15.96;100.00;101096.69;5074681;28;20265;-56
2021/10/02 01:55:12;;;;;;;39.73;22.87;;;;;;;15.99;100.00;101093.56;5074391;28;20269;-56
2021/10/02 01:57:51;;;;;;;39.80;21.93;;;;;;;15.94;100.00;101095.28;5074264;28;20331;-57
2021/10/02 02:00:18;;;;;;;39.53;23.50;;;;;;;16.03;100.00;101077.75;5074170;28;20317;-56
2021/10/02 02:02:50;;;;;;;39.07;22.27;;;;;;;15.89;100.00;101083.28;5074413;28;20245;-56
2021/10/02 02:05:19;;;;;;;43.27;21.80;;;;;;;15.85;100.00;101082.06;5073720;28;20277;-56
2021/10/02 02:07:50;;;;;;;39.93;24.70;;;;;;;15.89;100.00;101071.69;5073966;28;20280;-57
2021/10/02 02:10:18;;;;;;;36.40;22.07;;;;;;;15.89;100.00;101066.28;5074097;28;20280;-57
2021/10/02 02:12:45;;;;;;;37.63;22.50;;;;;;;15.81;100.00;101059.28;5074040;28;20280;-57
2021/10/02 02:15:13;;;;;;;42.83;21.73;;;;;;;15.79;100.00;101045.22;5055920;28;20269;-58
2021/10/02 02:17:42;;;;;;;38.67;21.60;;;;;;;15.78;100.00;101054.34;5073164;28;20936;-57
2021/10/02 02:20:10;;;;;;;42.07;21.67;;;;;;;15.86;100.00;101062.13;5055578;28;20273;-57
2021/10/02 02:22:35;;;;;;;45.00;22.40;;;;;;;15.70;100.00;101068.16;5073704;28;20614;-56
2021/10/02 02:25:02;;;;;;;40.45;22.35;;;;;;;15.72;100.00;101066.06;5073901;28;20271;-55
2021/10/02 02:27:28;;;;;;;56.40;24.87;;;;;;;15.74;100.00;101063.94;5073825;28;20036;-57
2021/10/02 02:29:53;;;;;;;59.97;23.70;;;;;;;15.89;100.00;101072.50;5073848;28;20733;-57
2021/10/02 02:32:19;;;;;;;41.85;21.98;;;;;;;15.87;100.00;101069.19;5073241;28;20277;-56
2021/10/02 02:34:48;;;;;;;42.97;21.92;;;;;;;15.75;100.00;101062.91;5055819;28;20041;-57
2021/10/02 02:37:14;;;;;;;41.70;22.67;;;;;;;15.98;100.00;101053.34;5055359;28;20097;-56
2021/10/02 02:39:40;;;;;;;40.30;21.27;;;;;;;15.98;100.00;101050.63;5073667;28;20257;-55
2021/10/02 02:42:06;;;;;;;40.67;21.33;;;;;;;16.03;100.00;101058.88;5055529;28;20036;-56
2021/10/02 02:44:32;;;;;;;44.10;22.70;;;;;;;16.05;100.00;101048.66;5073221;28;20098;-57
2021/10/02 02:47:05;;;;;;;38.30;20.55;;;;;;;16.05;100.00;101037.88;5073308;28;20071;-56
2021/10/02 02:49:50;;;;;;;41.73;22.47;;;;;;;15.93;100.00;101037.00;5073353;28;20036;-57
2021/10/02 02:52:35;;;;;;;39.97;21.90;;;;;;;15.86;100.00;101040.56;5072955;28;20748;-57
2021/10/02 02:55:12;;;;;;;43.60;24.70;;;;;;;15.87;100.00;101034.13;5073649;28;20272;-57
2021/10/02 02:57:46;;;;;;;45.53;23.20;;;;;;;15.68;100.00;101037.88;5073208;28;20265;-57
2021/10/02 03:00:15;;;;;;;49.43;25.57;;;;;;;15.78;100.00;101033.59;5073212;28;20087;-57
2021/10/02 03:02:56;;;;;;;51.67;28.23;;;;;;;15.71;100.00;101029.34;5076885;28;20280;-56
2021/10/02 03:05:24;;;;;;;52.07;26.30;;;;;;;15.71;100.00;101023.97;5088436;28;20288;-56
2021/10/02 03:08:04;;;;;;;50.47;26.17;;;;;;;15.63;100.00;101036.66;5093142;28;20732;-54
2021/10/02 03:10:31;;;;;;;51.17;25.47;;;;;;;15.66;100.00;101031.88;5093442;28;20325;-57
2021/10/02 03:13:02;;;;;;;60.30;28.30;;;;;;;15.54;100.00;101029.09;5083543;28;20841;-58
2021/10/02 03:15:29;;;;;;;49.30;26.30;;;;;;;15.66;100.00;101018.41;5072910;28;20614;-58
2021/10/02 03:17:57;;;;;;;58.20;27.77;;;;;;;15.49;100.00;101019.00;5072583;28;20271;-58
2021/10/02 03:20:25;;;;;;;51.80;27.27;;;;;;;15.63;100.00;101025.88;5054765;28;20327;-57
2021/10/02 03:22:54;;;;;;;51.87;25.93;;;;;;;15.81;100.00;101026.94;5055130;28;20269;-55
2021/10/02 03:25:26;;;;;;;53.47;25.83;;;;;;;15.64;100.00;101034.81;5072595;28;20308;-56
2021/10/02 03:27:54;;;;;;;61.70;26.00;;;;;;;15.51;100.00;101032.25;5072568;28;20816;-57
2021/10/02 03:30:20;;;;;;;51.50;25.77;;;;;;;15.63;100.00;101039.38;5072125;28;20341;-57
2021/10/02 03:32:47;;;;;;;51.55;25.67;;;;;;;15.86;100.00;101035.16;5054843;28;20871;-57
2021/10/02 03:35:12;;;;;;;55.17;27.08;;;;;;;15.63;100.00;101036.66;5072472;28;20047;-58
2021/10/02 03:37:38;;;;;;;52.33;26.08;;;;;;;15.61;100.00;101032.56;5072746;28;20135;-57
2021/10/02 03:40:05;;;;;;;49.50;25.85;;;;;;;15.66;100.00;101035.41;5072975;28;20084;-57
2021/10/02 03:42:41;;;;;;;59.23;28.67;;;;;;;15.63;100.00;101031.28;5054528;28;20048;-57
2021/10/02 03:45:07;;;;;;;57.67;27.20;;;;;;;15.71;100.00;101029.34;5072579;28;20345;-56
2021/10/02 03:47:32;;;;;;;49.42;26.55;;;;;;;15.60;100.00;101042.50;5072211;28;20756;-56
2021/10/02 03:49:58;;;;;;;59.03;26.37;;;;;;;15.67;100.00;101042.44;5072533;28;20119;-57
2021/10/02 03:52:23;;;;;;;48.87;25.73;;;;;;;15.61;100.00;101040.66;5072564;28;20337;-57
2021/10/02 03:54:49;;;;;;;55.67;27.27;;;;;;;15.46;100.00;101043.72;5072522;28;20273;-57
2021/10/02 03:57:14;;;;;;;51.67;25.50;;;;;;;15.39;100.00;101040.25;5054588;28;20033;-56
2021/10/02 03:59:40;;;;;;;54.85;28.20;;;;;;;15.39;100.00;101038.41;5072473;28;20127;-57
2021/10/02 04:02:07;;;;;;;58.43;29.47;;;;;;;15.49;100.00;101044.06;5072394;28;20459;-57
2021/10/02 04:04:32;;;;;;;63.57;28.57;;;;;;;15.54;100.00;101040.72;5072420;28;20044;-57
2021/10/02 04:06:58;;;;;;;62.05;26.63;;;;;;;14.04;100.00;101043.84;5054611;28;20291;-57
2021/10/02 04:09:24;;;;;;;66.82;28.50;;;;;;;15.26;100.00;101052.81;5071905;28;20095;-57
2021/10/02 04:11:50;;;;;;;61.67;29.07;;;;;;;14.43;100.00;101046.59;5072297;28;20041;-56
2021/10/02 04:14:15;;;;;;;60.83;29.55;;;;;;;13.85;100.00;101048.28;5072095;28;20266;-56
2021/10/02 04:16:41;;;;;;;55.03;26.45;;;;;;;15.16;100.00;101044.41;5037512;28;20044;-57
2021/10/02 04:19:06;;;;;;;58.90;27.25;;;;;;;14.03;100.00;101047.59;5054468;28;20028;-57
2021/10/02 04:21:32;;;;;;;60.28;27.63;;;;;;;13.90;100.00;101052.00;5054211;28;20045;-57
2021/10/02 04:23:57;;;;;;;58.00;26.43;;;;;;;13.88;100.00;101059.44;5072356;28;20045;-57
2021/10/02 04:26:23;;;;;;;55.75;25.08;;;;;;;13.87;100.00;101057.78;5072231;28;20773;-57
2021/10/02 04:28:49;;;;;;;62.13;28.10;;;;;;;13.80;100.00;101054.28;5054706;28;20075;-55
2021/10/02 04:31:16;;;;;;;55.58;26.23;;;;;;;13.86;100.00;101055.31;5054497;28;20041;-57
2021/10/02 04:33:43;;;;;;;52.17;24.50;;;;;;;13.88;100.00;101061.28;5054494;28;20483;-57
2021/10/02 04:36:08;;;;;;;52.63;25.17;;;;;;;13.89;100.00;101047.66;5072194;28;20749;-57
2021/10/02 04:38:34;;;;;;;54.45;26.33;;;;;;;13.77;100.00;101063.63;5072181;28;20262;-57
2021/10/02 04:40:59;;;;;;;58.43;25.93;;;;;;;13.67;100.00;101068.59;5074310;28;20045;-57
2021/10/02 04:43:25;;;;;;;51.57;27.10;;;;;;;13.62;100.00;101061.19;5075797;28;20276;-56
2021/10/02 04:45:50;;;;;;;53.58;26.45;;;;;;;13.59;100.00;101071.50;5075564;28;20285;-57
2021/10/02 04:48:16;;;;;;;61.40;31.23;;;;;;;13.61;100.00;101062.22;5057758;28;20044;-56
2021/10/02 04:50:42;;;;;;;67.17;30.13;;;;;;;13.57;100.00;101057.47;5075512;28;20594;-56
2021/10/02 04:53:08;;;;;;;65.95;31.02;;;;;;;13.55;100.00;101064.91;5075619;28;20045;-55
2021/10/02 04:55:34;;;;;;;68.18;30.05;;;;;;;13.59;100.00;101061.56;5075188;28;20036;-56
2021/10/02 04:57:59;;;;;;;64.50;30.90;;;;;;;13.51;100.00;101063.69;5075387;28;20032;-56
2021/10/02 05:00:25;;;;;;;61.05;29.08;;;;;;;13.55;100.00;101060.34;5075192;28;20044;-57
2021/10/02 05:02:50;;;;;;;78.37;36.00;;;;;;;13.45;100.00;101059.97;5075678;28;20045;-57
2021/10/02 05:05:16;;;;;;;73.87;35.73;;;;;;;13.55;100.00;101063.03;5078496;28;20277;-55
2021/10/02 05:07:41;;;;;;;67.75;31.27;;;;;;;13.57;100.00;101060.16;5061975;28;20296;-57
2021/10/02 05:10:08;;;;;;;74.03;32.37;;;;;;;13.58;100.00;101062.59;5095897;28;20400;-57
2021/10/02 05:12:33;;;;;;;79.10;34.53;;;;;;;13.54;100.00;101064.06;5095362;28;20329;-57
2021/10/02 05:14:59;;;;;;;75.23;33.57;;;;;;;13.58;100.00;101064.47;5095432;28;20047;-58
2021/10/02 05:17:24;;;;;;;67.57;29.93;;;;;;;13.55;100.00;101059.53;5060451;28;20280;-57
2021/10/02 05:19:51;;;;;;;76.77;33.23;;;;;;;13.54;100.00;101061.38;5095581;28;20272;-58
2021/10/02 05:22:18;;;;;;;77.63;32.57;;;;;;;13.51;100.00;101072.56;5071085;28;20044;-59
2021/10/02 05:24:43;;;;;;;68.15;33.35;;;;;;;13.45;100.00;101054.59;5075147;28;20284;-58
2021/10/02 05:27:10;;;;;;;72.97;34.50;;;;;;;13.45;100.00;101065.34;5075138;28;20047;-58
2021/10/02 05:29:38;;;;;;;71.43;33.27;;;;;;;13.31;100.00;101059.94;5060183;28;20460;-58
2021/10/02 05:32:04;;;;;;;77.97;36.53;;;;;;;13.27;100.00;101069.44;5094830;28;20357;-57
2021/10/02 05:34:30;;;;;;;84.43;36.80;;;;;;;13.23;100.00;101065.53;5077246;28;20566;-57
2021/10/02 05:36:56;;;;;;;97.47;37.17;;;;;;;13.25;100.00;101074.19;5095880;28;20368;-57
2021/10/02 05:39:21;;;;;;;77.90;33.85;;;;;;;13.25;100.00;101076.88;5095149;28;20747;-57
2021/10/02 05:41:47;;;;;;;84.65;35.05;;;;;;;13.27;100.00;101074.00;5094737;28;20213;-58
2021/10/02 05:44:12;;;;;;;83.38;33.13;;;;;;;13.23;100.00;101075.44;5094996;28;20040;-57
2021/10/02 05:46:38;;;;;;;82.72;35.13;;;;;;;13.25;100.00;101082.25;5094840;28;20424;-59
2021/10/02 05:49:04;;;;;;;63.92;27.92;;;;;;;13.27;100.00;101080.19;5094768;28;20488;-56
2021/10/02 05:51:30;;;;;;;60.88;27.05;;;;;;;13.33;100.00;101065.91;5094033;28;20058;-57
2021/10/02 05:53:55;;;;;;;72.30;29.38;;;;;;;13.38;100.00;101069.84;5076839;28;20471;-58
2021/10/02 05:56:21;;;;;;;66.20;28.03;;;;;;;13.38;100.00;101059.09;5094829;28;20076;-57
2021/10/02 05:58:47;;;;;;;58.00;26.60;;;;;;;13.46;100.00;101061.63;5094309;28;20033;-58
2021/10/02 06:01:12;;;;;;;74.70;27.73;;;;;;;13.36;100.00;101050.41;5076694;28;20051;-56
2021/10/02 06:03:38;;;;;;;67.18;27.55;;;;;;;13.39;100.00;101041.97;5094739;28;20645;-57
2021/10/02 06:06:03;;;;;;;54.13;25.20;;;;;;;13.38;100.00;101034.91;5092229;28;20092;-57
2021/10/02 06:08:29;;;;;;;57.90;25.27;;;;;;;13.41;100.00;101042.59;5055688;28;20062;-56
2021/10/02 06:10:55;;;;;;;49.33;23.45;;;;;;;13.36;100.00;101048.56;5081935;28;20307;-56
2021/10/02 06:13:22;;;;;;;60.00;25.85;;;;;;;13.50;100.00;101054.78;5094413;28;20044;-60
2021/10/02 06:15:47;;;;;;;51.03;22.37;;;;;;;13.48;100.00;101060.34;5075919;28;20376;-57
2021/10/02 06:18:13;;;;;;;54.35;24.30;;;;;;;13.58;100.00;101053.72;5074028;28;20617;-58
2021/10/02 06:20:38;;;;;;;50.73;25.27;;;;;;;13.60;100.00;101062.41;5039476;28;20044;-57
2021/10/02 06:23:04;;;;;;;51.90;22.40;;;;;;;13.60;100.00;101067.78;5094147;28;20729;-57
2021/10/02 06:25:33;;;;;;;49.25;25.88;;;;;;;13.57;100.00;101069.03;5094282;28;20093;-57
2021/10/02 06:27:59;;;;;;;54.23;24.60;;;;;;;13.55;100.00;101062.22;5088193;28;20051;-60
2021/10/02 06:30:25;;;;;;;45.75;23.73;;;;;;;13.58;100.00;101076.03;5090075;28;20261;-58
2021/10/02 06:32:51;;;;;;;51.50;24.40;;;;;;;13.55;100.00;101092.59;5093455;28;20372;-57
2021/10/02 06:35:16;;;;;;;42.20;22.63;;;;;;;13.48;100.00;101071.09;5075962;28;20476;-56
2021/10/02 06:37:45;;;;;;;49.95;21.60;;;;;;;13.61;100.00;101081.03;5094005;28;20054;-56
2021/10/02 06:40:12;;;;;;;39.90;20.73;;;;;;;13.72;100.00;101097.53;5093849;28;20122;-56
2021/10/02 06:42:37;;;;;;;;;;;;;;;13.85;100.00;101077.84;5076063;28;20760;-57
2021/10/02 06:45:06;;;;;;;37.23;20.00;;;;;;;13.87;100.00;101073.94;5075968;28;19967;-60
2021/10/02 06:47:31;;;;;;;39.77;20.60;;;;;;;13.80;100.00;101070.41;5075346;28;20028;-54
2021/10/02 06:49:57;;;;;;;37.90;20.85;;;;;;;13.74;100.00;101085.53;5094019;28;20260;-57
2021/10/02 06:52:27;;;;;;;42.85;20.02;;;;;;;13.79;100.00;101052.63;5075680;28;20052;-57
2021/10/02 06:54:54;;;;;;;37.77;19.13;;;;;;;13.79;100.00;101071.44;5093209;28;20525;-58
2021/10/02 06:57:20;;;;;;;34.00;19.57;;;;;;;13.73;100.00;101053.47;5093748;28;20317;-57
2021/10/02 06:59:46;;;;;;;39.43;19.60;;;;;;;13.65;100.00;101056.41;5093308;28;20311;-57
2021/10/02 07:02:12;;;;;;;46.67;20.17;;;;;;;13.64;100.00;101050.19;5093550;28;20048;-58
2021/10/02 07:04:37;;;;;;;33.22;18.80;;;;;;;13.77;100.00;101049.34;5075104;28;20085;-58
2021/10/02 07:07:04;;;;;;;35.10;18.48;;;;;;;13.75;100.00;101046.03;5093529;28;20466;-58
2021/10/02 07:09:30;;;;;;;35.80;18.85;;;;;;;13.82;100.00;101044.13;5093493;28;20052;-59
2021/10/02 07:11:55;;;;;;;41.47;18.98;;;;;;;13.79;100.00;101047.25;5075202;28;20056;-58
2021/10/02 07:14:21;;;;;;;35.03;18.83;;;;;;;13.78;100.00;101040.22;5093475;28;20097;-58
2021/10/02 07:16:47;;;;;;;32.85;18.38;;;;;;;13.68;100.00;101047.94;5074878;28;20040;-58
2021/10/02 07:19:13;;;;;;;32.20;18.48;;;;;;;13.75;100.00;101051.41;5093048;28;20119;-57
2021/10/02 07:21:39;;;;;;;34.63;18.80;;;;;;;13.86;100.00;101040.00;5093097;28;20040;-59
2021/10/02 07:24:05;;;;;;;35.78;18.65;;;;;;;13.85;100.00;101038.38;5093290;28;20287;-57
2021/10/02 07:26:31;;;;;;;34.38;18.13;;;;;;;13.77;100.00;101041.28;5074849;28;20140;-58
2021/10/02 07:28:56;;;;;;;31.55;18.25;;;;;;;13.80;100.00;101040.03;5092828;28;20411;-60
2021/10/02 07:31:22;;;;;;;31.50;17.73;;;;;;;13.83;100.00;101034.22;5092617;28;20058;-57
2021/10/02 07:33:49;;;;;;;36.55;17.85;;;;;;;13.85;100.00;101030.31;5092814;28;20036;-58
2021/10/02 07:36:18;;;;;;;28.07;15.83;;;;;;;13.85;100.00;101029.47;5058576;28;20043;-58
2021/10/02 07:38:45;;;;;;;31.17;17.67;;;;;;;13.93;100.00;101028.41;5092542;28;20271;-59
2021/10/02 07:41:13;;;;;;;30.43;16.67;;;;;;;13.95;100.00;101016.38;5092833;28;20260;-58
2021/10/02 07:43:43;;;;;;;32.30;17.03;;;;;;;14.10;100.00;101018.81;5092778;28;20391;-58
2021/10/02 07:46:12;;;;;;;33.37;15.17;;;;;;;14.12;100.00;101024.81;5074931;28;20633;-58
2021/10/02 07:48:42;;;;;;;28.40;14.80;;;;;;;14.24;100.00;100994.53;5092930;28;20263;-57
2021/10/02 07:51:09;;;;;;;25.80;13.77;;;;;;;14.30;100.00;101001.72;5092663;28;20272;-58
2021/10/02 07:53:38;;;;;;;23.07;13.63;;;;;;;14.33;100.00;100995.94;5074725;28;20598;-58
2021/10/02 07:56:04;;;;;;;22.40;14.10;;;;;;;14.67;100.00;100998.41;5092719;28;20276;-57
2021/10/02 07:58:30;;;;;;;28.08;14.70;;;;;;;14.69;100.00;100997.13;5069344;28;20257;-58
2021/10/02 08:00:56;;;;;;;28.33;14.00;;;;;;;14.73;100.00;100995.66;5062988;28;20123;-58
2021/10/02 08:03:23;;;;;;;26.77;14.67;;;;;;;14.76;100.00;100997.94;5065164;28;20036;-58
2021/10/02 08:05:49;;;;;;;;;;;;;;;14.64;100.00;100991.56;5081626;28;20820;-59
2021/10/02 08:08:19;;;;;;;32.53;13.13;;;;;;;14.53;100.00;100989.56;5073985;28;19912;-58
2021/10/02 08:10:47;;;;;;;24.17;13.57;;;;;;;14.52;100.00;100991.44;5072533;28;20041;-57
2021/10/02 08:13:13;;;;;;;22.90;13.77;;;;;;;14.48;100.00;100980.28;5054459;28;20698;-57
2021/10/02 08:15:46;;;;;;;28.97;14.00;;;;;;;14.49;100.00;100990.00;5074225;28;20297;-59
2021/10/02 08:18:17;;;;;;;28.17;14.63;;;;;;;14.61;100.00;100992.00;5076231;28;20257;-58
2021/10/02 08:20:44;;;;;;;27.53;13.33;;;;;;;14.55;100.00;100993.69;5075679;28;20324;-57
2021/10/02 08:23:13;;;;;;;22.90;12.30;;;;;;;14.55;100.00;100996.38;5058833;28;20261;-59
2021/10/02 08:25:43;;;;;;;25.80;12.83;;;;;;;14.71;100.00;100995.06;5058395;28;20363;-58
2021/10/02 08:28:09;;;;;;;27.60;12.73;;;;;;;14.86;100.00;100989.34;5058461;28;20300;-59
2021/10/02 08:30:34;;;;;;;24.63;13.98;;;;;;;14.84;100.00;100991.44;5089990;28;20590;-58
2021/10/02 08:33:00;;;;;;;24.20;12.63;;;;;;;14.76;100.00;100995.25;5088756;28;20037;-56
2021/10/02 08:35:26;;;;;;;29.85;12.05;;;;;;;14.70;100.00;100988.00;5068750;28;20036;-57
2021/10/02 08:37:52;;;;;;;23.75;11.80;;;;;;;14.73;100.00;100984.88;5096095;28;20507;-58
2021/10/02 08:40:18;;;;;;;28.40;12.20;;;;;;;14.79;100.00;100990.47;5095467;28;20036;-58
2021/10/02 08:42:45;;;;;;;24.17;11.13;;;;;;;14.79;100.00;100982.38;5086275;28;20288;-59
2021/10/02 08:45:12;;;;;;;17.90;10.33;;;;;;;14.83;100.00;100981.69;5066091;28;20037;-58
2021/10/02 08:47:42;;;;;;;20.23;10.43;;;;;;;15.00;100.00;100968.53;5087184;28;20757;-57
2021/10/02 08:50:09;;;;;;;18.53;11.40;;;;;;;15.46;100.00;100965.56;5068442;28;20736;-58
2021/10/02 08:52:35;;;;;;;24.57;10.00;;;;;;;15.53;100.00;100954.69;5084488;28;20356;-58
2021/10/02 08:55:03;;;;;;;19.98;9.70;;;;;;;16.28;100.00;100956.22;5084901;28;20349;-58
2021/10/02 08:57:30;;;;;;;17.27;8.07;;;;;;;15.77;100.00;100952.94;5085680;28;20028;-58
2021/10/02 08:59:56;;;;;;;17.03;8.37;;;;;;;15.49;100.00;100960.53;5065742;28;20020;-58
2021/10/02 09:02:24;;;;;;;20.33;9.30;;;;;;;15.31;100.00;100957.84;5067480;28;20038;-57
2021/10/02 09:04:50;;;;;;;20.50;10.07;;;;;;;15.18;100.00;100964.19;5067339;28;20032;-58
2021/10/02 09:07:19;;;;;;;17.30;8.77;;;;;;;15.14;100.00;100969.22;5049537;28;20430;-59
2021/10/02 09:09:46;;;;;;;17.30;8.57;;;;;;;15.30;100.00;100957.03;5084639;28;20123;-58
2021/10/02 09:12:16;;;;;;;19.73;10.17;;;;;;;16.14;100.00;100950.16;5085198;28;20273;-59
2021/10/02 09:14:43;;;;;;;19.40;9.77;;;;;;;16.95;100.00;100939.94;5084048;28;20034;-59
2021/10/02 09:17:08;;;;;;;21.13;9.55;;;;;;;16.94;100.00;100936.44;5084712;28;20028;-59
2021/10/02 09:19:34;;;;;;;13.43;8.57;;;;;;;16.66;100.00;100929.88;5067444;28;20119;-58
2021/10/02 09:22:11;;;;;;;20.73;9.30;;;;;;;17.59;100.00;100926.47;5065459;28;20082;-58
2021/10/02 09:24:43;;;;;;;17.23;9.13;;;;;;;18.39;100.00;100927.66;5083620;28;20585;-57
2021/10/02 09:27:19;;;;;;;25.60;9.63;;;;;;;18.51;100.00;100914.81;5083329;28;20036;-59
2021/10/02 09:29:51;;;;;;;15.40;8.43;;;;;;;18.55;100.00;100907.84;5084407;28;20029;-58
2021/10/02 09:32:19;;;;;;;20.73;8.10;;;;;;;18.21;100.00;100905.16;5086982;28;20082;-58
2021/10/02 09:34:52;;;;;;;14.87;7.20;;;;;;;17.89;100.00;100902.97;5083855;28;20012;-58
2021/10/02 09:37:29;;;;;;;18.67;7.27;;;;;;;18.17;100.00;100885.06;5082812;28;20039;-59
2021/10/02 09:40:05;;;;;;;;;;;;;;;17.46;100.00;100892.44;5082958;28;20130;-59
2021/10/02 09:42:36;;;;;;;19.83;6.37;;;;;;;16.84;100.00;100896.50;5084497;28;19938;-59
2021/10/02 09:45:13;;;;;;;15.37;6.40;;;;;;;17.22;100.00;100893.56;5098589;28;20084;-57
2021/10/02 09:47:40;;;;;;;15.33;6.73;;;;;;;17.51;100.00;100891.69;5085226;28;20028;-59
2021/10/02 09:50:08;;;;;;;14.83;5.30;;;;;;;17.49;100.00;100907.34;5084871;28;20025;-59
2021/10/02 09:52:37;;;;;;;18.60;6.33;;;;;;;17.21;100.00;100898.13;5083304;28;20044;-59
2021/10/02 09:55:25;;;;;;;12.00;6.07;;;;;;;17.32;100.00;100891.91;5078387;28;20060;-60
2021/10/02 09:58:06;;;;;;;14.63;5.37;;;;;;;17.05;100.00;100897.81;5056251;28;20431;-58
2021/10/02 10:00:38;;;;;;;12.93;5.60;;;;;;;16.72;100.00;100901.91;5074111;28;20042;-56
2021/10/02 10:03:06;;;;;;;13.83;5.87;;;;;;;17.13;100.00;100899.31;5055537;28;20036;-56
2021/10/02 10:05:45;;;;;;;11.27;6.13;;;;;;;17.30;100.00;100879.66;5073877;28;20029;-58
2021/10/02 10:08:12;;;;;;;17.03;6.20;;;;;;;17.75;100.00;100854.56;5057393;28;20032;-59
2021/10/02 10:10:41;;;;;;;12.53;5.40;;;;;;;18.24;100.00;100845.09;5073729;28;20053;-59
2021/10/02 10:13:15;;;;;;;14.77;5.57;;;;;;;18.25;100.00;100849.47;5072212;28;20045;-60
2021/10/02 10:15:44;;;;;;;11.10;5.37;;;;;;;19.11;100.00;100847.41;5055986;28;20029;-57
2021/10/02 10:18:13;;;;;;;14.30;5.40;;;;;;;19.64;100.00;100846.91;5073450;28;20028;-58
2021/10/02 10:20:50;;;;;;;12.37;5.63;;;;;;;19.79;100.00;100846.22;5055752;28;20060;-58
2021/10/02 10:23:26;;;;;;;15.40;5.97;;;;;;;19.13;100.00;100833.59;5073019;28;20032;-58
2021/10/02 10:25:54;;;;;;;11.05;5.97;;;;;;;18.88;100.00;100832.19;5081876;28;20074;-59
2021/10/02 10:28:24;;;;;;;13.33;6.47;;;;;;;19.03;100.00;100835.13;5094217;28;20479;-58
2021/10/02 10:30:51;;;;;;;13.77;6.87;;;;;;;18.54;100.00;100837.69;5093644;28;20044;-57
2021/10/02 10:33:18;;;;;;;13.80;6.00;;;;;;;18.17;100.00;100839.84;5093382;28;20027;-58
2021/10/02 10:35:47;;;;;;;11.27;5.90;;;;;;;17.86;100.00;100823.09;5075262;28;20400;-57
2021/10/02 10:38:27;;;;;;;16.20;6.43;;;;;;;18.00;100.00;100811.97;5074955;28;20038;-59
2021/10/02 10:40:54;;;;;;;9.30;5.60;;;;;;;17.76;100.00;100812.09;5086503;28;20040;-59
2021/10/02 10:43:20;;;;;;;20.83;9.25;;;;;;;17.74;100.00;100815.06;5075673;28;20028;-59
2021/10/02 10:45:46;;;;;;;17.70;6.87;;;;;;;17.80;100.00;100813.28;5088778;28;20063;-59
2021/10/02 10:48:12;;;;;;;13.02;6.53;;;;;;;18.07;100.00;100807.25;5092711;28;20028;-58
2021/10/02 10:50:45;;;;;;;22.38;8.82;;;;;;;18.44;100.00;100806.69;5089893;28;20085;-57
2021/10/02 10:53:11;;;;;;;15.30;4.23;;;;;;;18.13;100.00;100806.25;5090406;28;20659;-58
2021/10/02 10:55:47;;;;;;;;;;;;;;;18.02;100.00;100793.63;5092458;28;20119;-58
2021/10/02 10:58:28;;;;;;;7.53;3.20;;;;;;;17.88;100.00;100793.13;5072130;28;20280;-57
2021/10/02 11:00:55;;;;;;;6.87;2.80;;;;;;;17.55;100.00;100775.78;5071760;28;20043;-57
2021/10/02 11:03:43;;;;;;;9.70;3.70;;;;;;;17.62;100.00;100788.09;5053754;28;20033;-57
2021/10/02 11:06:19;;;;;;;5.27;3.07;;;;;;;17.67;100.00;100791.94;5071219;28;20029;-56
2021/10/02 11:09:04;;;;;;;8.50;3.50;;;;;;;17.63;100.00;100788.88;5070548;28;20111;-58
2021/10/02 11:11:54;;;;;;;10.03;3.63;;;;;;;17.24;100.00;100780.63;5071620;28;20503;-56
2021/10/02 11:14:25;;;;;;;4.43;2.80;;;;;;;17.33;100.00;100788.13;5054338;28;20055;-58
2021/10/02 11:17:02;;;;;;;8.07;3.10;;;;;;;17.41;100.00;100783.38;5072242;28;20119;-58
2021/10/02 11:19:35;;;;;;;9.30;3.33;;;;;;;17.28;100.00;100788.00;5073503;28;20154;-59
2021/10/02 11:23:03;;;;;;;7.57;2.90;;;;;;;17.32;100.00;100782.94;5072683;28;20503;-59
2021/10/02 11:25:29;;;;;;;7.93;2.90;;;;;;;18.14;100.00;100767.28;5011240;28;20041;-58
2021/10/02 11:28:26;;;;;;;10.45;2.40;;;;;;;19.92;100.00;100755.44;5045905;28;20048;-59
2021/10/02 11:30:55;;;;;;;7.75;2.50;;;;;;;19.99;100.00;100742.50;5073309;28;20036;-59
2021/10/02 11:33:32;;;;;;;6.93;2.30;;;;;;;18.51;100.00;100746.13;5054627;28;20682;-60
2021/10/02 11:35:58;;;;;;;4.97;2.67;;;;;;;18.06;100.00;100721.72;5072758;28;20036;-59
2021/10/02 11:38:35;;;;;;;6.72;2.83;;;;;;;18.05;100.00;100726.28;5053599;28;20082;-58
2021/10/02 11:41:01;;;;;;;5.17;2.03;;;;;;;17.93;100.00;100725.56;5072211;28;20530;-60
2021/10/02 11:43:28;;;;;;;3.47;1.80;;;;;;;17.91;100.00;100722.28;5073387;28;20021;-59
2021/10/02 11:45:57;;;;;;;5.20;2.03;;;;;;;17.91;100.00;100706.84;5072634;28;20044;-58
2021/10/02 11:48:43;;;;;;;7.00;2.20;;;;;;;18.30;100.00;100705.25;5071965;28;20559;-59
2021/10/02 11:51:14;;;;;;;4.72;1.70;;;;;;;18.45;100.00;100688.38;5057935;28;20468;-59
2021/10/02 11:53:52;;;;;;;4.60;1.90;;;;;;;18.26;100.00;100694.09;5076273;28;20082;-59
2021/10/02 11:56:21;;;;;;;5.07;1.73;;;;;;;18.17;100.00;100680.19;5076523;28;20093;-58
2021/10/02 11:58:52;;;;;;;6.53;2.67;;;;;;;18.26;100.00;100685.97;5076629;28;20029;-60
2021/10/02 12:01:24;;;;;;;6.63;2.57;;;;;;;18.62;100.00;100677.47;5058541;28;20091;-60
2021/10/02 12:03:59;;;;;;;6.57;1.70;;;;;;;19.40;100.00;100665.53;5076464;28;20036;-60
2021/10/02 12:06:25;;;;;;;7.10;1.87;;;;;;;19.55;100.00;100656.69;5076318;28;20036;-59
2021/10/02 12:08:51;;;;;;;5.82;2.00;;;;;;;19.81;100.00;100670.41;5075490;28;20090;-60